Zuiderdam — PBIG — position and weather

sailwx.info

Track history (hours):
 
Tides and Currents Weather Stations Pressure Air Temp Water Temp Dewpoint Dewpoint Depression Visibility Wind Speed Wind Dir Waves Ship Positions

Zuiderdam (Netherlands)

Operator: Holland America Line

Last reported at 2020-Sep-19 05:00 UTC. Time now 2020-Sep-19 09:49 UTC.
Position N 35°00' E 027°48'.

Type: Passenger vessel. MMSI: 245304000.

Wind from 280 at 11 knots

Barometer 1013.0 mb
Air temperature 26.0 ° C
Visibility: greater than 10.8 NM
Dewpoint 21.1 ° C
Water temperature 28.6 ° C

Date/timePositionNaut miles runAvg speedWind from/ knotsBaromVisibWave heightAir tempDewpointWater temp
2020-Sep-19 05:00N 35°00' E 027°48'13812.5 280 / 111013.010.8 26.021.128.6
2020-Sep-18 18:00N 34°24' E 030°30'4013.2 290 / 181013.010.8 27.021.830.0
2020-Sep-18 15:00N 34°24' E 031°18'7159.8 310 / 151008.010.8 28.523.730.1
2020-Sep-18 14:57N 34°26' E 031°26'8 8.7
2020-Sep-18 14:00N 34°24' E 031°36'1223.9 310 / 151008.010.8 28.824.430.3
2020-Sep-18 13:30N 34°25' E 031°50'1812.0
2020-Sep-18 12:00N 34°24' E 032°12'2315.3 330 / 171012.010.8 29.725.530.3
2020-Sep-18 10:30N 34°24' E 032°40'3210.7
2020-Sep-18 07:28N 34°41' E 033°13'0 0.1
2020-Sep-18 06:58N 34°42' E 033°13'0 0.0
2020-Sep-18 04:58N 34°41' E 033°13'1 0.5
2020-Sep-18 03:00N 34°42' E 033°12'152.9 220 / 31011.0 5.4 24.021.029.9
2020-Sep-18 02:58N 34°41' E 033°13'0 0.0
2020-Sep-18 01:25N 34°41' E 033°13'0 0.0
2020-Sep-18 00:58N 34°41' E 033°13'0 0.0
2020-Sep-17 19:28N 34°42' E 033°13'0 0.0
2020-Sep-17 16:58N 34°42' E 033°13'0 0.0
2020-Sep-17 15:28N 34°42' E 033°13'0 0.0
2020-Sep-17 14:28N 34°42' E 033°13'0 0.0
2020-Sep-17 11:58N 34°41' E 033°13'0 0.0
2020-Sep-17 07:58N 34°41' E 033°13'0 0.0
2020-Sep-17 07:28N 34°41' E 033°13'0 0.0
2020-Sep-17 06:58N 34°41' E 033°13'0 0.1
2020-Sep-17 06:28N 34°41' E 033°13'0 0.0
2020-Sep-17 03:28N 34°41' E 033°13'0 0.0
2020-Sep-17 02:58N 34°41' E 033°13'0 0.0
2020-Sep-17 01:28N 34°41' E 033°13'0 0.0
2020-Sep-17 00:55N 34°41' E 033°13'0 0.0
2020-Sep-17 00:28N 34°41' E 033°13'0 0.0
2020-Sep-16 23:58N 34°41' E 033°13'5 2.8
2020-Sep-16 22:00N 34°36' E 033°12'0 0.0 040 / 31010.0 5.4 26.722.030.1
2020-Sep-16 21:00N 34°36' E 033°12'510.5 1010.010.8 27.023.530.0
2020-Sep-16 20:28N 34°41' E 033°13'0 0.0
2020-Sep-16 18:28N 34°41' E 033°13'0 0.1
2020-Sep-16 17:58N 34°42' E 033°13'0 0.0
2020-Sep-16 16:58N 34°41' E 033°13'0 0.0
2020-Sep-16 16:19N 34°42' E 033°13'0 0.0
2020-Sep-16 11:58N 34°42' E 033°13'0 0.0
2020-Sep-16 06:58N 34°42' E 033°13'0 0.0
2020-Sep-16 04:58N 34°42' E 033°13'0 0.0
2020-Sep-16 04:28N 34°42' E 033°13'0 0.0
2020-Sep-16 03:58N 34°42' E 033°13'0 0.0
2020-Sep-16 02:58N 34°42' E 033°13'0 0.0
2020-Sep-15 23:58N 34°42' E 033°13'0 0.0
2020-Sep-15 23:28N 34°42' E 033°13'0 0.0
2020-Sep-15 22:28N 34°42' E 033°13'611.5
2020-Sep-15 22:00N 34°36' E 033°12'6 3.7 260 / 21010.0 5.4 26.021.528.6
2020-Sep-15 20:28N 34°42' E 033°13'611.5
2020-Sep-15 20:00N 34°36' E 033°12'0 0.0 1010.010.8 27.021.129.0
2020-Sep-15 15:00N 34°36' E 033°12'6 5.2 200 / 141010.010.8 29.024.930.0
2020-Sep-15 13:55N 34°42' E 033°13'0 0.0
2020-Sep-15 13:25N 34°42' E 033°13'0 0.0
2020-Sep-15 11:58N 34°42' E 033°13'0 0.0
2020-Sep-15 09:28N 34°42' E 033°13'0 0.0
2020-Sep-15 07:25N 34°42' E 033°13'0 0.0
2020-Sep-15 05:28N 34°42' E 033°13'0 0.0
2020-Sep-15 02:58N 34°42' E 033°13'0 0.0
2020-Sep-15 01:58N 34°42' E 033°13'1 0.2
2020-Sep-14 22:00N 34°42' E 033°12'1 0.9 060 / 51012.0 5.4 25.621.129.0
2020-Sep-14 20:58N 34°42' E 033°13'6 5.7
2020-Sep-14 20:00N 34°36' E 033°12'6329.5 1013.010.8 26.020.930.0
2020-Sep-14 19:58N 34°42' E 033°13'0 0.0
2020-Sep-14 14:28N 34°42' E 033°13'0 0.0
2020-Sep-14 12:28N 34°41' E 033°13'0 0.0
2020-Sep-14 09:58N 34°42' E 033°13'0 0.0
2020-Sep-14 06:28N 34°42' E 033°13'0 0.0
2020-Sep-14 05:28N 34°42' E 033°13'0 0.0
2020-Sep-14 04:55N 34°42' E 033°13'0 0.0
2020-Sep-14 03:55N 34°42' E 033°13'0 0.0
2020-Sep-14 03:28N 34°42' E 033°13'0 0.0
2020-Sep-14 02:55N 34°42' E 033°13'0 0.0
2020-Sep-14 02:28N 34°42' E 033°13'0 0.0
2020-Sep-14 00:58N 34°42' E 033°13'1 0.5
2020-Sep-13 23:00N 34°42' E 033°12'1 1.7 020 / 31013.0 5.4 25.422.829.5
2020-Sep-13 22:28N 34°42' E 033°13'0 0.0
2020-Sep-13 21:58N 34°42' E 033°13'0 0.0
2020-Sep-13 21:28N 34°42' E 033°13'32781320.3
2020-Sep-13 19:00N 34°36' W 033°12'32781086.6 060 / 51013.010.8 27.023.330.0
2020-Sep-13 15:58N 34°42' E 033°13'0 0.0
2020-Sep-13 15:28N 34°42' E 033°13'0 0.0
2020-Sep-13 14:28N 34°42' E 033°13'0 0.0
2020-Sep-13 13:28N 34°42' E 033°13'0 0.0
2020-Sep-13 08:55N 34°41' E 033°13'0 0.0
2020-Sep-13 08:28N 34°41' E 033°13'611.5
2020-Sep-13 08:00N 34°36' E 033°12'5 1.8 200 / 101012.010.8 33.023.131.0
2020-Sep-13 04:55N 34°41' E 033°13'0 0.0
2020-Sep-13 04:28N 34°41' E 033°13'0 0.0
2020-Sep-13 03:58N 34°41' E 033°13'0 0.0
2020-Sep-13 01:58N 34°41' E 033°13'1 0.9
2020-Sep-13 01:00N 34°42' E 033°12'1 0.6 090 / 21012.0 5.4 24.621.630.1
2020-Sep-12 23:28N 34°41' E 033°13'5 3.7
2020-Sep-12 22:00N 34°36' E 033°12'6 5.4 310 / 41012.0 5.4 25.422.030.3
2020-Sep-12 20:58N 34°41' E 033°13'0 0.0
2020-Sep-12 20:28N 34°41' E 033°13'0 0.0
2020-Sep-12 19:28N 34°41' E 033°13'0 0.0
2020-Sep-12 17:22N 34°41' E 033°13'0 0.0
2020-Sep-12 15:55N 34°41' E 033°13'0 0.0
2020-Sep-12 15:28N 34°41' E 033°13'0 0.0
2020-Sep-12 14:28N 34°41' E 033°13'0 0.0
2020-Sep-12 09:58N 34°41' E 033°13'1 0.9
2020-Sep-12 09:00N 34°42' E 033°12'1 1.7 200 / 131011.010.8 32.027.831.0
2020-Sep-12 08:28N 34°41' E 033°13'0 0.0
2020-Sep-12 06:28N 34°41' E 033°13'0 0.0
2020-Sep-12 04:58N 34°41' E 033°13'0 0.0
2020-Sep-12 04:28N 34°41' E 033°13'41 7.5
2020-Sep-11 23:00N 34°12' E 033°48'914.7 200 / 141005.0 5.4 28.023.931.0
2020-Sep-11 22:24N 34°17' E 033°57'44 3.8
2020-Sep-11 11:00N 34°42' E 033°13'1 0.8
2020-Sep-11 10:00N 34°42' E 033°12'1 0.8 220 / 101005.010.8 33.025.630.7
2020-Sep-11 09:00N 34°42' E 033°13'0 0.1
2020-Sep-11 08:30N 34°42' E 033°13'0 0.0
2020-Sep-11 08:00N 34°42' E 033°13'0 0.0
2020-Sep-11 06:30N 34°41' E 033°13'0 0.0
2020-Sep-11 06:00N 34°41' E 033°13'0 0.0
2020-Sep-11 04:00N 34°41' E 033°13'0 0.0
2020-Sep-11 03:30N 34°41' E 033°13'610.9
2020-Sep-11 03:00N 34°36' E 033°12'6 1.6 320 / 11003.010.8 26.812.530.5
2020-Sep-10 23:30N 34°42' E 033°13'0 0.0
2020-Sep-10 22:00N 34°41' E 033°13'1140.0
2020-Sep-10 22:00N 34°42' E 033°12'1 1.6 310 / 71003.0 5.4 27.914.930.5
2020-Sep-10 21:30N 34°41' E 033°13'0 0.0
2020-Sep-10 21:00N 34°41' E 033°13'6 5.5
2020-Sep-10 20:00N 34°36' E 033°12'611.2 310 / 51004.010.8 28.017.330.0
2020-Sep-10 19:30N 34°41' E 033°13'0 0.0
2020-Sep-10 14:30N 34°42' E 033°13'0 0.0
2020-Sep-10 11:30N 34°42' E 033°13'0 0.1
2020-Sep-10 11:00N 34°42' E 033°13'5 3.3
2020-Sep-10 09:31N 34°37' E 033°11'14 9.3
2020-Sep-10 08:00N 34°23' E 033°09'28 9.4
2020-Sep-10 05:01N 33°55' E 033°06'162.9
2020-Sep-10 05:00N 33°54' E 033°06'13 8.9 350 / 51006.0 5.4 27.725.030.1
2020-Sep-10 03:31N 33°41' E 033°04'19 9.5
2020-Sep-10 01:30N 33°22' E 033°02'2911.5
2020-Sep-09 23:00N 32°54' E 032°54'3610.5 330 / 91006.0 5.4 27.125.230.8
2020-Sep-09 19:30N 32°18' E 032°53'2013.1
2020-Sep-09 18:00N 31°58' E 032°48'612.2
2020-Sep-09 17:30N 31°52' E 032°47'14 9.1
2020-Sep-09 16:00N 31°42' E 032°36'0 3.6 340 / 201007.010.8 30.025.230.4
2020-Sep-09 15:53N 31°42' E 032°36'30 9.9
2020-Sep-09 12:49N 31°14' E 032°21'17 9.1
2020-Sep-09 10:59N 30°58' E 032°19'16 9.8
2020-Sep-09 09:21N 30°42' E 032°21'  
Track history (hours):
 
Tides and Currents Weather Stations Pressure Air Temp Water Temp Dewpoint Dewpoint Depression Visibility Wind Speed Wind Dir Waves Ship Positions

Zuiderdam (Netherlands)

Operator: Holland America Line

Last reported at 2020-Sep-19 05:00 UTC. Time now 2020-Sep-19 09:49 UTC.
Position N 35°00' E 027°48'.

Type: Passenger vessel. MMSI: 245304000.

Wind from 280 at 11 knots

Barometer 1013.0 mb
Air temperature 26.0 ° C
Visibility: greater than 10.8 NM
Dewpoint 21.1 ° C
Water temperature 28.6 ° C

Date/timePositionNaut miles runAvg speedWind from/ knotsBaromVisibWave heightAir tempDewpointWater temp
2020-Sep-19 05:00N 35°00' E 027°48'13812.5 280 / 111013.010.8 26.021.128.6
2020-Sep-18 18:00N 34°24' E 030°30'4013.2 290 / 181013.010.8 27.021.830.0
2020-Sep-18 15:00N 34°24' E 031°18'7159.8 310 / 151008.010.8 28.523.730.1
2020-Sep-18 14:57N 34°26' E 031°26'8 8.7
2020-Sep-18 14:00N 34°24' E 031°36'1223.9 310 / 151008.010.8 28.824.430.3
2020-Sep-18 13:30N 34°25' E 031°50'1812.0
2020-Sep-18 12:00N 34°24' E 032°12'2315.3 330 / 171012.010.8 29.725.530.3
2020-Sep-18 10:30N 34°24' E 032°40'3210.7
2020-Sep-18 07:28N 34°41' E 033°13'0 0.1
2020-Sep-18 06:58N 34°42' E 033°13'0 0.0
2020-Sep-18 04:58N 34°41' E 033°13'1 0.5
2020-Sep-18 03:00N 34°42' E 033°12'152.9 220 / 31011.0 5.4 24.021.029.9
2020-Sep-18 02:58N 34°41' E 033°13'0 0.0
2020-Sep-18 01:25N 34°41' E 033°13'0 0.0
2020-Sep-18 00:58N 34°41' E 033°13'0 0.0
2020-Sep-17 19:28N 34°42' E 033°13'0 0.0
2020-Sep-17 16:58N 34°42' E 033°13'0 0.0
2020-Sep-17 15:28N 34°42' E 033°13'0 0.0
2020-Sep-17 14:28N 34°42' E 033°13'0 0.0
2020-Sep-17 11:58N 34°41' E 033°13'0 0.0
2020-Sep-17 07:58N 34°41' E 033°13'0 0.0
2020-Sep-17 07:28N 34°41' E 033°13'0 0.0
2020-Sep-17 06:58N 34°41' E 033°13'0 0.1
2020-Sep-17 06:28N 34°41' E 033°13'0 0.0
2020-Sep-17 03:28N 34°41' E 033°13'0 0.0
2020-Sep-17 02:58N 34°41' E 033°13'0 0.0
2020-Sep-17 01:28N 34°41' E 033°13'0 0.0
2020-Sep-17 00:55N 34°41' E 033°13'0 0.0
2020-Sep-17 00:28N 34°41' E 033°13'0 0.0
2020-Sep-16 23:58N 34°41' E 033°13'5 2.8
2020-Sep-16 22:00N 34°36' E 033°12'0 0.0 040 / 31010.0 5.4 26.722.030.1
2020-Sep-16 21:00N 34°36' E 033°12'510.5 1010.010.8 27.023.530.0
2020-Sep-16 20:28N 34°41' E 033°13'0 0.0
2020-Sep-16 18:28N 34°41' E 033°13'0 0.1
2020-Sep-16 17:58N 34°42' E 033°13'0 0.0
2020-Sep-16 16:58N 34°41' E 033°13'0 0.0
2020-Sep-16 16:19N 34°42' E 033°13'0 0.0
2020-Sep-16 11:58N 34°42' E 033°13'0 0.0
2020-Sep-16 06:58N 34°42' E 033°13'0 0.0
2020-Sep-16 04:58N 34°42' E 033°13'0 0.0
2020-Sep-16 04:28N 34°42' E 033°13'0 0.0
2020-Sep-16 03:58N 34°42' E 033°13'0 0.0
2020-Sep-16 02:58N 34°42' E 033°13'0 0.0
2020-Sep-15 23:58N 34°42' E 033°13'0 0.0
2020-Sep-15 23:28N 34°42' E 033°13'0 0.0
2020-Sep-15 22:28N 34°42' E 033°13'611.5
2020-Sep-15 22:00N 34°36' E 033°12'6 3.7 260 / 21010.0 5.4 26.021.528.6
2020-Sep-15 20:28N 34°42' E 033°13'611.5
2020-Sep-15 20:00N 34°36' E 033°12'0 0.0 1010.010.8 27.021.129.0
2020-Sep-15 15:00N 34°36' E 033°12'6 5.2 200 / 141010.010.8 29.024.930.0
2020-Sep-15 13:55N 34°42' E 033°13'0 0.0
2020-Sep-15 13:25N 34°42' E 033°13'0 0.0
2020-Sep-15 11:58N 34°42' E 033°13'0 0.0
2020-Sep-15 09:28N 34°42' E 033°13'0 0.0
2020-Sep-15 07:25N 34°42' E 033°13'0 0.0
2020-Sep-15 05:28N 34°42' E 033°13'0 0.0
2020-Sep-15 02:58N 34°42' E 033°13'0 0.0
2020-Sep-15 01:58N 34°42' E 033°13'1 0.2
2020-Sep-14 22:00N 34°42' E 033°12'1 0.9 060 / 51012.0 5.4 25.621.129.0
2020-Sep-14 20:58N 34°42' E 033°13'6 5.7
2020-Sep-14 20:00N 34°36' E 033°12'6329.5 1013.010.8 26.020.930.0
2020-Sep-14 19:58N 34°42' E 033°13'0 0.0
2020-Sep-14 14:28N 34°42' E 033°13'0 0.0
2020-Sep-14 12:28N 34°41' E 033°13'0 0.0
2020-Sep-14 09:58N 34°42' E 033°13'0 0.0
2020-Sep-14 06:28N 34°42' E 033°13'0 0.0
2020-Sep-14 05:28N 34°42' E 033°13'0 0.0
2020-Sep-14 04:55N 34°42' E 033°13'0 0.0
2020-Sep-14 03:55N 34°42' E 033°13'0 0.0
2020-Sep-14 03:28N 34°42' E 033°13'0 0.0
2020-Sep-14 02:55N 34°42' E 033°13'0 0.0
2020-Sep-14 02:28N 34°42' E 033°13'0 0.0
2020-Sep-14 00:58N 34°42' E 033°13'1 0.5
2020-Sep-13 23:00N 34°42' E 033°12'1 1.7 020 / 31013.0 5.4 25.422.829.5
2020-Sep-13 22:28N 34°42' E 033°13'0 0.0
2020-Sep-13 21:58N 34°42' E 033°13'0 0.0
2020-Sep-13 21:28N 34°42' E 033°13'32781320.3
2020-Sep-13 19:00N 34°36' W 033°12'32781086.6 060 / 51013.010.8 27.023.330.0
2020-Sep-13 15:58N 34°42' E 033°13'0 0.0
2020-Sep-13 15:28N 34°42' E 033°13'0 0.0
2020-Sep-13 14:28N 34°42' E 033°13'0 0.0
2020-Sep-13 13:28N 34°42' E 033°13'0 0.0
2020-Sep-13 08:55N 34°41' E 033°13'0 0.0
2020-Sep-13 08:28N 34°41' E 033°13'611.5
2020-Sep-13 08:00N 34°36' E 033°12'5 1.8 200 / 101012.010.8 33.023.131.0
2020-Sep-13 04:55N 34°41' E 033°13'0 0.0
2020-Sep-13 04:28N 34°41' E 033°13'0 0.0
2020-Sep-13 03:58N 34°41' E 033°13'0 0.0
2020-Sep-13 01:58N 34°41' E 033°13'1 0.9
2020-Sep-13 01:00N 34°42' E 033°12'1 0.6 090 / 21012.0 5.4 24.621.630.1
2020-Sep-12 23:28N 34°41' E 033°13'5 3.7
2020-Sep-12 22:00N 34°36' E 033°12'6 5.4 310 / 41012.0 5.4 25.422.030.3
2020-Sep-12 20:58N 34°41' E 033°13'0 0.0
2020-Sep-12 20:28N 34°41' E 033°13'0 0.0
2020-Sep-12 19:28N 34°41' E 033°13'0 0.0
2020-Sep-12 17:22N 34°41' E 033°13'0 0.0
2020-Sep-12 15:55N 34°41' E 033°13'0 0.0
2020-Sep-12 15:28N 34°41' E 033°13'0 0.0
2020-Sep-12 14:28N 34°41' E 033°13'0 0.0
2020-Sep-12 09:58N 34°41' E 033°13'1 0.9
2020-Sep-12 09:00N 34°42' E 033°12'1 1.7 200 / 131011.010.8 32.027.831.0
2020-Sep-12 08:28N 34°41' E 033°13'0 0.0
2020-Sep-12 06:28N 34°41' E 033°13'0 0.0
2020-Sep-12 04:58N 34°41' E 033°13'0 0.0
2020-Sep-12 04:28N 34°41' E 033°13'41 7.5
2020-Sep-11 23:00N 34°12' E 033°48'914.7 200 / 141005.0 5.4 28.023.931.0
2020-Sep-11 22:24N 34°17' E 033°57'44 3.8
2020-Sep-11 11:00N 34°42' E 033°13'1 0.8
2020-Sep-11 10:00N 34°42' E 033°12'1 0.8 220 / 101005.010.8 33.025.630.7
2020-Sep-11 09:00N 34°42' E 033°13'0 0.1
2020-Sep-11 08:30N 34°42' E 033°13'0 0.0
2020-Sep-11 08:00N 34°42' E 033°13'0 0.0
2020-Sep-11 06:30N 34°41' E 033°13'0 0.0
2020-Sep-11 06:00N 34°41' E 033°13'0 0.0
2020-Sep-11 04:00N 34°41' E 033°13'0 0.0
2020-Sep-11 03:30N 34°41' E 033°13'610.9
2020-Sep-11 03:00N 34°36' E 033°12'6 1.6 320 / 11003.010.8 26.812.530.5
2020-Sep-10 23:30N 34°42' E 033°13'0 0.0
2020-Sep-10 22:00N 34°41' E 033°13'1140.0
2020-Sep-10 22:00N 34°42' E 033°12'1 1.6 310 / 71003.0 5.4 27.914.930.5
2020-Sep-10 21:30N 34°41' E 033°13'0 0.0
2020-Sep-10 21:00N 34°41' E 033°13'6 5.5
2020-Sep-10 20:00N 34°36' E 033°12'611.2 310 / 51004.010.8 28.017.330.0
2020-Sep-10 19:30N 34°41' E 033°13'0 0.0
2020-Sep-10 14:30N 34°42' E 033°13'0 0.0
2020-Sep-10 11:30N 34°42' E 033°13'0 0.1
2020-Sep-10 11:00N 34°42' E 033°13'5 3.3
2020-Sep-10 09:31N 34°37' E 033°11'14 9.3
2020-Sep-10 08:00N 34°23' E 033°09'28 9.4
2020-Sep-10 05:01N 33°55' E 033°06'162.9
2020-Sep-10 05:00N 33°54' E 033°06'13 8.9 350 / 51006.0 5.4 27.725.030.1
2020-Sep-10 03:31N 33°41' E 033°04'19 9.5
2020-Sep-10 01:30N 33°22' E 033°02'2911.5
2020-Sep-09 23:00N 32°54' E 032°54'3610.5 330 / 91006.0 5.4 27.125.230.8
2020-Sep-09 19:30N 32°18' E 032°53'2013.1
2020-Sep-09 18:00N 31°58' E 032°48'612.2
2020-Sep-09 17:30N 31°52' E 032°47'14 9.1
2020-Sep-09 16:00N 31°42' E 032°36'0 3.6 340 / 201007.010.8 30.025.230.4
2020-Sep-09 15:53N 31°42' E 032°36'30 9.9
2020-Sep-09 12:49N 31°14' E 032°21'17 9.1
2020-Sep-09 10:59N 30°58' E 032°19'16 9.8
2020-Sep-09 09:21N 30°42' E 032°21'  

Dump ship's entire track history